createdAt,value
2016-09-14T00:00:33.844Z,0
2016-09-14T00:01:33.863Z,0
2016-09-14T00:02:33.837Z,0
2016-09-14T00:03:33.962Z,0
2016-09-14T00:04:33.806Z,0
2016-09-14T00:05:33.800Z,0
2016-09-14T00:06:33.806Z,0
2016-09-14T00:07:33.831Z,0
2016-09-14T00:08:33.809Z,0
2016-09-14T00:09:33.812Z,0
2016-09-14T00:10:33.863Z,0
2016-09-14T00:11:33.811Z,0
2016-09-14T00:12:33.832Z,0
2016-09-14T00:13:33.842Z,0
2016-09-14T00:14:33.819Z,0
2016-09-14T00:15:33.835Z,0
2016-09-14T00:16:33.844Z,0
2016-09-14T00:17:33.804Z,0
2016-09-14T00:18:33.806Z,0
2016-09-14T00:19:33.814Z,0
2016-09-14T00:20:33.877Z,0
2016-09-14T00:21:33.850Z,0
2016-09-14T00:22:33.851Z,0
2016-09-14T00:23:33.868Z,0
2016-09-14T00:24:33.831Z,0
2016-09-14T00:25:33.853Z,0
2016-09-14T00:26:33.820Z,0
2016-09-14T00:27:33.829Z,0
2016-09-14T00:28:33.819Z,0
2016-09-14T00:29:36.252Z,0
2016-09-14T00:30:33.851Z,0
2016-09-14T00:31:33.856Z,0
2016-09-14T00:32:33.830Z,0
2016-09-14T00:33:34.617Z,0
2016-09-14T00:34:34.459Z,0
2016-09-14T00:35:33.868Z,0
2016-09-14T00:36:33.877Z,0
2016-09-14T00:37:34.801Z,0
2016-09-14T00:38:34.967Z,0
2016-09-14T00:39:33.868Z,0
2016-09-14T00:40:33.839Z,0
2016-09-14T00:41:34.944Z,0
2016-09-14T00:42:33.843Z,0
2016-09-14T00:43:33.952Z,0
2016-09-14T00:44:34.319Z,0
2016-09-14T00:45:33.852Z,0
2016-09-14T00:46:33.863Z,0
2016-09-14T00:47:33.861Z,0
2016-09-14T00:48:33.858Z,0
2016-09-14T00:49:33.848Z,0
2016-09-14T00:50:33.853Z,0
2016-09-14T00:51:34.402Z,0
2016-09-14T00:52:33.876Z,0
2016-09-14T00:53:34.274Z,0
2016-09-14T00:54:33.895Z,0
2016-09-14T00:55:34.205Z,0
2016-09-14T00:56:33.871Z,0
2016-09-14T00:57:33.878Z,0
2016-09-14T00:58:33.887Z,0
2016-09-14T00:59:33.857Z,0
2016-09-14T01:00:33.864Z,0
2016-09-14T01:01:33.869Z,0
2016-09-14T01:02:34.105Z,0
2016-09-14T01:03:34.275Z,0
2016-09-14T01:04:33.904Z,0
2016-09-14T01:05:33.870Z,0
2016-09-14T01:06:34.177Z,0
2016-09-14T01:07:33.884Z,0
2016-09-14T01:08:34.241Z,0
2016-09-14T01:09:33.851Z,0
2016-09-14T01:10:33.872Z,0
2016-09-14T01:11:33.863Z,0
2016-09-14T01:12:33.852Z,0
2016-09-14T01:13:33.866Z,0
2016-09-14T01:14:33.915Z,0
2016-09-14T01:15:34.165Z,0
2016-09-14T01:16:33.865Z,0
2016-09-14T01:17:34.082Z,0
2016-09-14T01:18:34.177Z,0
2016-09-14T01:19:33.916Z,0
2016-09-14T01:20:33.879Z,0
2016-09-14T01:21:33.881Z,0
2016-09-14T01:22:33.855Z,0
2016-09-14T01:23:33.890Z,0
2016-09-14T01:24:33.847Z,0
2016-09-14T01:25:33.884Z,0
2016-09-14T01:26:33.927Z,0
2016-09-14T01:27:33.874Z,0
2016-09-14T01:28:33.874Z,0
2016-09-14T01:29:33.897Z,0
2016-09-14T01:30:33.859Z,0
2016-09-14T01:31:33.900Z,0
2016-09-14T01:32:33.890Z,0
2016-09-14T01:33:33.903Z,0
2016-09-14T01:34:33.898Z,0
2016-09-14T01:35:33.892Z,0
2016-09-14T01:36:34.598Z,0
2016-09-14T01:37:33.942Z,0
2016-09-14T01:38:33.946Z,0
2016-09-14T01:39:33.985Z,0
2016-09-14T01:40:33.889Z,0
2016-09-14T01:41:33.934Z,0
2016-09-14T01:42:34.637Z,0
2016-09-14T01:43:34.730Z,0
2016-09-14T01:44:34.534Z,0
2016-09-14T01:45:34.524Z,0
2016-09-14T01:46:34.648Z,0
2016-09-14T01:47:34.536Z,0
2016-09-14T01:48:34.558Z,0
2016-09-14T01:49:33.945Z,0
2016-09-14T01:50:34.759Z,0
2016-09-14T01:51:33.933Z,0
2016-09-14T01:52:33.900Z,0
2016-09-14T01:53:33.910Z,0
2016-09-14T01:54:33.963Z,0
2016-09-14T01:55:34.294Z,0
2016-09-14T01:56:33.951Z,0
2016-09-14T01:57:34.089Z,0
2016-09-14T01:58:33.950Z,0
2016-09-14T01:59:33.925Z,0
2016-09-14T02:00:33.925Z,0
2016-09-14T02:01:33.917Z,0
2016-09-14T02:02:33.950Z,0
2016-09-14T02:03:33.916Z,0
2016-09-14T02:04:34.930Z,0
2016-09-14T02:05:33.944Z,0
2016-09-14T02:06:34.021Z,0
2016-09-14T02:07:33.922Z,0
2016-09-14T02:08:33.897Z,0
2016-09-14T02:09:33.924Z,0
2016-09-14T02:10:33.973Z,0
2016-09-14T02:11:34.391Z,0
2016-09-14T02:12:33.931Z,0
2016-09-14T02:13:33.921Z,0
2016-09-14T02:14:34.757Z,0
2016-09-14T02:15:34.589Z,0
2016-09-14T02:16:34.399Z,0
2016-09-14T02:17:33.950Z,0
2016-09-14T02:18:34.016Z,0
2016-09-14T02:19:33.929Z,0
2016-09-14T02:20:33.945Z,0
2016-09-14T02:21:33.925Z,0
2016-09-14T02:22:35.266Z,0
2016-09-14T02:23:34.016Z,0
2016-09-14T02:24:33.963Z,0
2016-09-14T02:25:34.204Z,0
2016-09-14T02:26:34.046Z,0
2016-09-14T02:27:34.020Z,0
2016-09-14T02:28:33.956Z,0
2016-09-14T02:29:33.982Z,0
2016-09-14T02:30:33.990Z,0
2016-09-14T02:31:33.949Z,0
2016-09-14T02:32:33.976Z,0
2016-09-14T02:33:33.967Z,0
2016-09-14T02:34:34.063Z,0
2016-09-14T02:35:33.960Z,0
2016-09-14T02:36:33.960Z,0
2016-09-14T02:37:34.044Z,0
2016-09-14T02:38:33.948Z,0
2016-09-14T02:39:33.966Z,0
2016-09-14T02:40:34.006Z,0
2016-09-14T02:41:33.963Z,0
2016-09-14T02:42:34.031Z,0
2016-09-14T02:43:33.963Z,0
2016-09-14T02:44:33.973Z,0
2016-09-14T02:45:34.037Z,0
2016-09-14T02:46:33.991Z,0
2016-09-14T02:47:33.965Z,0
2016-09-14T02:48:33.963Z,0
2016-09-14T02:49:34.010Z,0
2016-09-14T02:50:34.291Z,0
2016-09-14T02:51:33.984Z,0
2016-09-14T02:52:33.984Z,0
2016-09-14T02:53:33.988Z,0
2016-09-14T02:54:33.997Z,0
2016-09-14T02:55:33.963Z,0
2016-09-14T02:56:33.979Z,0
2016-09-14T02:57:34.005Z,0
2016-09-14T02:58:34.492Z,0
2016-09-14T02:59:33.969Z,0
2016-09-14T03:00:33.967Z,0
2016-09-14T03:01:33.967Z,0
2016-09-14T03:02:33.961Z,0
2016-09-14T03:03:33.955Z,0
2016-09-14T03:04:34.624Z,0
2016-09-14T03:05:33.960Z,0
2016-09-14T03:06:34.755Z,0
2016-09-14T03:07:34.925Z,0
2016-09-14T03:08:33.983Z,0
2016-09-14T03:09:34.180Z,0
2016-09-14T03:10:34.059Z,0
2016-09-14T03:11:33.985Z,0
2016-09-14T03:12:33.981Z,0
2016-09-14T03:13:34.002Z,0
2016-09-14T03:14:33.984Z,0
2016-09-14T03:15:33.976Z,0
2016-09-14T03:16:33.979Z,0
2016-09-14T03:17:34.762Z,0
2016-09-14T03:18:35.509Z,0
2016-09-14T03:19:33.983Z,0
2016-09-14T03:20:33.960Z,0
2016-09-14T03:21:34.017Z,0
2016-09-14T03:22:33.985Z,0
2016-09-14T03:23:33.970Z,0
2016-09-14T03:24:34.017Z,0
2016-09-14T03:25:33.978Z,0
2016-09-14T03:26:33.983Z,0
2016-09-14T03:27:34.064Z,0
2016-09-14T03:28:34.411Z,0
2016-09-14T03:29:34.024Z,0
2016-09-14T03:30:34.000Z,0
2016-09-14T03:31:35.378Z,0
2016-09-14T03:32:35.197Z,0
2016-09-14T03:33:35.093Z,0
2016-09-14T03:34:34.275Z,0
2016-09-14T03:35:34.095Z,0
2016-09-14T03:36:34.049Z,0
2016-09-14T03:37:34.014Z,0
2016-09-14T03:38:35.441Z,0
2016-09-14T03:39:34.219Z,0
2016-09-14T03:40:34.002Z,0
2016-09-14T03:41:35.103Z,0
2016-09-14T03:42:34.266Z,0
2016-09-14T03:43:34.318Z,0
2016-09-14T03:44:34.895Z,0
2016-09-14T03:45:35.115Z,0
2016-09-14T03:46:34.551Z,0
2016-09-14T03:47:34.033Z,0
2016-09-14T03:48:34.988Z,0
2016-09-14T03:49:34.045Z,0
2016-09-14T03:50:34.976Z,0
2016-09-14T03:51:34.828Z,0
2016-09-14T03:52:34.026Z,0
2016-09-14T03:53:34.243Z,0
2016-09-14T03:54:34.047Z,0
2016-09-14T03:55:34.886Z,0
2016-09-14T03:56:34.022Z,0
2016-09-14T03:57:34.048Z,0
2016-09-14T03:58:34.016Z,0
2016-09-14T03:59:34.060Z,0
2016-09-14T04:00:34.028Z,0
2016-09-14T04:01:34.523Z,0
2016-09-14T04:02:34.013Z,0
2016-09-14T04:03:34.025Z,0
2016-09-14T04:04:34.031Z,0
2016-09-14T04:05:34.008Z,0
2016-09-14T04:06:34.103Z,0
2016-09-14T04:07:34.934Z,0
2016-09-14T04:08:34.022Z,0
2016-09-14T04:09:34.001Z,0
2016-09-14T04:10:34.020Z,0
2016-09-14T04:11:34.020Z,0
2016-09-14T04:13:34.033Z,0
2016-09-14T04:14:34.050Z,0
2016-09-14T04:15:34.023Z,0
2016-09-14T04:16:34.085Z,0
2016-09-14T04:17:34.051Z,0
2016-09-14T04:18:34.058Z,0
2016-09-14T04:19:34.052Z,0
2016-09-14T04:20:34.056Z,0
2016-09-14T04:21:34.083Z,0
2016-09-14T04:22:34.109Z,0
2016-09-14T04:23:34.118Z,0
2016-09-14T04:24:34.071Z,0
2016-09-14T04:25:34.050Z,0
2016-09-14T04:26:34.039Z,0
2016-09-14T04:27:34.042Z,0
2016-09-14T04:28:34.062Z,0
2016-09-14T04:29:34.061Z,0
2016-09-14T04:30:34.051Z,0
2016-09-14T04:31:34.051Z,0
2016-09-14T04:32:34.064Z,0
2016-09-14T04:33:34.056Z,0
2016-09-14T04:34:34.078Z,0
2016-09-14T04:35:34.070Z,0
2016-09-14T04:36:34.033Z,0
2016-09-14T04:37:34.055Z,0
2016-09-14T04:38:34.105Z,0
2016-09-14T04:39:34.056Z,0
2016-09-14T04:40:34.102Z,0
2016-09-14T04:41:34.097Z,0
2016-09-14T04:42:34.047Z,0
2016-09-14T04:43:34.055Z,0
2016-09-14T04:44:34.083Z,0
2016-09-14T04:45:34.091Z,0
2016-09-14T04:46:34.083Z,0
2016-09-14T04:47:34.074Z,0
2016-09-14T04:48:34.069Z,0
2016-09-14T04:49:34.074Z,0
2016-09-14T04:50:34.064Z,0
2016-09-14T04:51:34.070Z,0
2016-09-14T04:52:34.065Z,0
2016-09-14T04:53:34.083Z,0
2016-09-14T04:54:34.108Z,0
2016-09-14T04:55:34.087Z,0
2016-09-14T04:56:34.335Z,0
2016-09-14T04:57:34.118Z,0
2016-09-14T04:58:34.081Z,5
2016-09-14T04:59:34.095Z,5
2016-09-14T05:00:34.132Z,5
2016-09-14T05:01:34.108Z,5
2016-09-14T05:02:34.083Z,5
2016-09-14T05:03:34.177Z,5
2016-09-14T05:04:34.161Z,5
2016-09-14T05:05:34.140Z,10
2016-09-14T05:06:34.079Z,10
2016-09-14T05:07:34.103Z,10
2016-09-14T05:08:34.179Z,10
2016-09-14T05:09:34.120Z,10
2016-09-14T05:10:34.155Z,10
2016-09-14T05:11:34.186Z,15
2016-09-14T05:12:34.191Z,15
2016-09-14T05:13:34.162Z,15
2016-09-14T05:14:34.168Z,15
2016-09-14T05:15:34.169Z,15
2016-09-14T05:16:34.151Z,20
2016-09-14T05:17:34.128Z,20
2016-09-14T05:18:34.109Z,20
2016-09-14T05:19:34.156Z,20
2016-09-14T05:20:34.149Z,25
2016-09-14T05:21:34.130Z,25
2016-09-14T05:22:34.133Z,25
2016-09-14T05:23:34.109Z,25
2016-09-14T05:24:34.148Z,30
2016-09-14T05:25:34.094Z,30
2016-09-14T05:26:34.129Z,30
2016-09-14T05:27:34.078Z,35
2016-09-14T05:28:34.173Z,35
2016-09-14T05:29:34.141Z,35
2016-09-14T05:30:34.185Z,35
2016-09-14T05:31:34.179Z,40
2016-09-14T05:32:34.829Z,40
2016-09-14T05:33:34.118Z,40
2016-09-14T05:34:34.828Z,40
2016-09-14T05:35:38.538Z,45
2016-09-14T05:36:35.023Z,45
2016-09-14T05:37:35.554Z,45
2016-09-14T05:38:34.734Z,50
2016-09-14T05:39:35.496Z,50
2016-09-14T05:40:34.117Z,50
2016-09-14T05:41:34.985Z,50
2016-09-14T05:42:34.484Z,55
2016-09-14T05:43:35.506Z,55
2016-09-14T05:44:35.585Z,55
2016-09-14T05:45:34.135Z,55
2016-09-14T05:46:34.145Z,60
2016-09-14T05:47:35.003Z,60
2016-09-14T05:48:34.136Z,60
2016-09-14T05:49:34.173Z,60
2016-09-14T05:50:34.154Z,65
2016-09-14T05:51:34.163Z,65
2016-09-14T05:52:34.135Z,65
2016-09-14T05:53:34.120Z,65
2016-09-14T05:54:34.180Z,70
2016-09-14T05:55:34.154Z,70
2016-09-14T05:56:34.144Z,70
2016-09-14T05:57:34.137Z,70
2016-09-14T05:58:34.123Z,75
2016-09-14T05:59:34.129Z,75
2016-09-14T06:00:34.142Z,75
2016-09-14T06:01:34.121Z,75
2016-09-14T06:02:34.155Z,80
2016-09-14T06:03:34.116Z,80
2016-09-14T06:04:34.154Z,80
2016-09-14T06:05:34.134Z,80
2016-09-14T06:06:34.145Z,85
2016-09-14T06:07:34.170Z,85
2016-09-14T06:08:34.151Z,85
2016-09-14T06:09:34.170Z,85
2016-09-14T06:10:34.146Z,90
2016-09-14T06:11:34.184Z,90
2016-09-14T06:12:34.139Z,90
2016-09-14T06:13:34.247Z,90
2016-09-14T06:14:34.188Z,90
2016-09-14T06:15:34.197Z,95
2016-09-14T06:16:34.174Z,95
2016-09-14T06:17:34.143Z,95
2016-09-14T06:18:34.152Z,95
2016-09-14T06:19:34.137Z,100
2016-09-14T06:20:34.152Z,100
2016-09-14T06:21:34.154Z,100
2016-09-14T06:22:34.148Z,100
2016-09-14T06:23:34.138Z,105
2016-09-14T06:24:34.168Z,105
2016-09-14T06:25:34.149Z,105
2016-09-14T06:26:34.147Z,105
2016-09-14T06:27:34.213Z,105
2016-09-14T06:28:34.156Z,105
2016-09-14T06:29:34.148Z,105
2016-09-14T06:30:34.161Z,105
2016-09-14T06:31:34.143Z,105
2016-09-14T06:32:34.149Z,105
2016-09-14T06:33:34.151Z,110
2016-09-14T06:34:34.174Z,110
2016-09-14T06:35:34.152Z,110
2016-09-14T06:36:34.165Z,110
2016-09-14T06:37:34.158Z,110
2016-09-14T06:38:34.187Z,110
2016-09-14T06:39:34.193Z,110
2016-09-14T06:40:34.183Z,115
2016-09-14T06:41:34.177Z,115
2016-09-14T06:42:34.206Z,115
2016-09-14T06:43:34.190Z,115
2016-09-14T06:44:34.192Z,115
2016-09-14T06:45:34.203Z,115
2016-09-14T06:46:34.156Z,120
2016-09-14T06:47:34.178Z,120
2016-09-14T06:48:34.184Z,120
2016-09-14T06:49:34.202Z,120
2016-09-14T06:50:34.228Z,120
2016-09-14T06:51:34.200Z,120
2016-09-14T06:52:34.205Z,125
2016-09-14T06:53:34.219Z,125
2016-09-14T06:54:34.296Z,125
2016-09-14T06:55:34.181Z,125
2016-09-14T06:56:34.209Z,125
2016-09-14T06:57:34.178Z,125
2016-09-14T06:58:34.250Z,125
2016-09-14T06:59:34.180Z,130
2016-09-14T07:00:34.162Z,130
2016-09-14T07:01:34.164Z,130
2016-09-14T07:02:34.229Z,130
2016-09-14T07:03:34.235Z,130
2016-09-14T07:04:34.193Z,130
2016-09-14T07:05:34.248Z,130
2016-09-14T07:06:34.196Z,130
2016-09-14T07:07:34.188Z,135
2016-09-14T07:08:34.190Z,135
2016-09-14T07:09:34.291Z,135
2016-09-14T07:10:34.233Z,135
2016-09-14T07:11:34.312Z,135
2016-09-14T07:12:34.310Z,135
2016-09-14T07:13:34.218Z,135
2016-09-14T07:14:34.208Z,135
2016-09-14T07:15:34.193Z,135
2016-09-14T07:16:34.202Z,135
2016-09-14T07:17:34.217Z,140
2016-09-14T07:18:34.191Z,140
2016-09-14T07:19:34.201Z,140
2016-09-14T07:20:34.213Z,140
2016-09-14T07:21:34.273Z,140
2016-09-14T07:22:34.298Z,140
2016-09-14T07:23:34.243Z,140
2016-09-14T07:24:34.312Z,140
2016-09-14T07:25:34.203Z,140
2016-09-14T07:26:34.219Z,140
2016-09-14T07:27:34.959Z,140
2016-09-14T07:28:34.204Z,140
2016-09-14T07:29:34.238Z,140
2016-09-14T07:30:34.241Z,140
2016-09-14T07:31:34.246Z,145
2016-09-14T07:32:34.236Z,145
2016-09-14T07:33:34.249Z,145
2016-09-14T07:34:34.258Z,145
2016-09-14T07:35:34.294Z,145
2016-09-14T07:36:34.263Z,145
2016-09-14T07:37:34.265Z,145
2016-09-14T07:38:34.211Z,145
2016-09-14T07:39:34.251Z,145
2016-09-14T07:40:34.259Z,145
2016-09-14T07:41:34.250Z,145
2016-09-14T07:42:34.290Z,145
2016-09-14T07:43:34.229Z,145
2016-09-14T07:44:34.260Z,150
2016-09-14T07:45:34.240Z,150
2016-09-14T07:46:34.275Z,150
2016-09-14T07:47:34.247Z,150
2016-09-14T07:48:34.239Z,150
2016-09-14T07:49:34.286Z,150
2016-09-14T07:50:34.249Z,150
2016-09-14T07:51:34.239Z,150
2016-09-14T07:52:34.254Z,150
2016-09-14T07:53:34.240Z,150
2016-09-14T07:54:34.317Z,150
2016-09-14T07:55:34.327Z,150
2016-09-14T07:56:34.242Z,150
2016-09-14T07:57:34.263Z,150
2016-09-14T07:58:34.255Z,150
2016-09-14T07:59:34.290Z,150
2016-09-14T08:00:34.229Z,150
2016-09-14T08:01:34.230Z,150
2016-09-14T08:02:34.241Z,150
2016-09-14T08:03:34.317Z,150
2016-09-14T08:04:34.250Z,150
2016-09-14T08:05:34.236Z,150
2016-09-14T08:06:34.265Z,150
2016-09-14T08:07:34.240Z,150
2016-09-14T08:08:34.268Z,150
2016-09-14T08:09:34.256Z,150
2016-09-14T08:10:34.266Z,150
2016-09-14T08:11:34.283Z,150
2016-09-14T08:12:34.283Z,150
2016-09-14T08:13:34.283Z,155
2016-09-14T08:14:34.290Z,155
2016-09-14T08:15:34.297Z,155
2016-09-14T08:16:34.274Z,155
2016-09-14T08:17:34.312Z,155
2016-09-14T08:18:34.321Z,155
2016-09-14T08:19:34.297Z,155
2016-09-14T08:20:34.313Z,155
2016-09-14T08:21:34.307Z,155
2016-09-14T08:22:34.270Z,155
2016-09-14T08:23:34.310Z,155
2016-09-14T08:24:34.319Z,155
2016-09-14T08:25:34.383Z,155
2016-09-14T08:26:34.350Z,155
2016-09-14T08:27:34.322Z,155
2016-09-14T08:28:34.362Z,155
2016-09-14T08:29:34.264Z,155
2016-09-14T08:30:34.335Z,155
2016-09-14T08:31:34.287Z,155
2016-09-14T08:32:34.338Z,155
2016-09-14T08:33:34.518Z,155
2016-09-14T08:34:34.312Z,155
2016-09-14T08:35:34.299Z,155
2016-09-14T08:36:34.322Z,155
2016-09-14T08:37:34.316Z,155
2016-09-14T08:38:34.318Z,155
2016-09-14T08:39:34.331Z,155
2016-09-14T08:40:34.354Z,155
2016-09-14T08:41:34.308Z,155
2016-09-14T08:42:34.315Z,155
2016-09-14T08:43:34.363Z,155
2016-09-14T08:44:34.342Z,155
2016-09-14T08:45:34.386Z,160
2016-09-14T08:46:34.300Z,160
2016-09-14T08:47:34.318Z,155
2016-09-14T08:48:34.342Z,155
2016-09-14T08:49:34.312Z,155
2016-09-14T08:50:34.347Z,155
2016-09-14T08:51:34.356Z,155
2016-09-14T08:52:34.328Z,155
2016-09-14T08:53:34.332Z,155
2016-09-14T08:54:34.382Z,155
2016-09-14T08:55:34.329Z,155
2016-09-14T08:56:34.350Z,155
2016-09-14T08:57:34.340Z,155
2016-09-14T08:58:34.338Z,155
2016-09-14T08:59:34.384Z,150
2016-09-14T09:00:34.350Z,150
2016-09-14T09:01:34.368Z,150
2016-09-14T09:02:34.371Z,150
2016-09-14T09:03:34.419Z,150
2016-09-14T09:04:34.336Z,150
2016-09-14T09:05:34.384Z,150
2016-09-14T09:06:34.332Z,150
2016-09-14T09:07:34.369Z,150
2016-09-14T09:08:34.365Z,150
2016-09-14T09:09:34.335Z,155
2016-09-14T09:10:34.373Z,150
2016-09-14T09:11:34.378Z,150
2016-09-14T09:12:34.329Z,150
2016-09-14T09:13:34.379Z,150
2016-09-14T09:14:34.385Z,150
2016-09-14T09:15:34.382Z,150
2016-09-14T09:16:34.392Z,150
2016-09-14T09:17:34.407Z,150
2016-09-14T09:18:34.384Z,150
2016-09-14T09:19:34.326Z,150
2016-09-14T09:20:34.353Z,150
2016-09-14T09:21:34.344Z,150
2016-09-14T09:22:34.339Z,150
2016-09-14T09:23:34.369Z,150
2016-09-14T09:24:34.356Z,150
2016-09-14T09:25:34.365Z,150
2016-09-14T09:26:34.338Z,150
2016-09-14T09:27:34.381Z,150
2016-09-14T09:28:34.386Z,150
2016-09-14T09:29:34.368Z,150
2016-09-14T09:30:34.358Z,150
2016-09-14T09:31:34.353Z,150
2016-09-14T09:32:34.385Z,150
2016-09-14T09:33:34.406Z,150
2016-09-14T09:34:34.372Z,150
2016-09-14T09:35:34.377Z,150
2016-09-14T09:36:34.374Z,150
2016-09-14T09:37:34.360Z,150
2016-09-14T09:38:34.396Z,150
2016-09-14T09:39:34.644Z,150
2016-09-14T09:40:35.157Z,150
2016-09-14T09:41:34.374Z,150
2016-09-14T09:42:34.379Z,150
2016-09-14T09:43:34.477Z,150
2016-09-14T09:44:34.390Z,150
2016-09-14T09:45:34.398Z,150
2016-09-14T09:46:34.394Z,150
2016-09-14T09:47:34.367Z,150
2016-09-14T09:48:34.420Z,150
2016-09-14T09:49:34.367Z,155
2016-09-14T09:50:34.379Z,150
2016-09-14T09:51:34.341Z,150
2016-09-14T09:52:34.369Z,150
2016-09-14T09:53:34.367Z,150
2016-09-14T09:54:34.440Z,150
2016-09-14T09:55:34.381Z,150
2016-09-14T09:56:34.367Z,150
2016-09-14T09:57:34.401Z,150
2016-09-14T09:58:34.408Z,150
2016-09-14T09:59:34.440Z,150
2016-09-14T10:00:34.384Z,150
2016-09-14T10:01:34.446Z,150
2016-09-14T10:02:34.406Z,150
2016-09-14T10:03:34.380Z,150
2016-09-14T10:04:34.447Z,150
2016-09-14T10:05:34.380Z,150
2016-09-14T10:06:34.417Z,150
2016-09-14T10:07:34.424Z,150
2016-09-14T10:08:34.370Z,150
2016-09-14T10:09:34.434Z,150
2016-09-14T10:10:34.388Z,150
2016-09-14T10:11:34.482Z,150
2016-09-14T10:12:34.779Z,150
2016-09-14T10:13:34.405Z,150
2016-09-14T10:14:34.405Z,145
2016-09-14T10:15:34.409Z,150
2016-09-14T10:16:34.651Z,145
2016-09-14T10:17:34.462Z,150
2016-09-14T10:18:34.429Z,145
2016-09-14T10:19:34.424Z,145
2016-09-14T10:20:34.434Z,145
2016-09-14T10:21:34.433Z,145
2016-09-14T10:22:34.448Z,145
2016-09-14T10:23:34.437Z,145
2016-09-14T10:24:34.437Z,145
2016-09-14T10:25:34.434Z,145
2016-09-14T10:26:34.420Z,145
2016-09-14T10:27:34.411Z,145
2016-09-14T10:28:34.421Z,145
2016-09-14T10:29:34.417Z,145
2016-09-14T10:30:34.419Z,145
2016-09-14T10:31:34.431Z,145
2016-09-14T10:32:34.447Z,145
2016-09-14T10:33:34.394Z,145
2016-09-14T10:34:34.432Z,145
2016-09-14T10:35:34.459Z,145
2016-09-14T10:36:34.428Z,145
2016-09-14T10:37:34.981Z,145
2016-09-14T10:38:34.682Z,145
2016-09-14T10:39:34.451Z,145
2016-09-14T10:40:34.458Z,145
2016-09-14T10:41:34.761Z,145
2016-09-14T10:42:34.499Z,140
2016-09-14T10:43:35.642Z,140
2016-09-14T10:44:35.181Z,140
2016-09-14T10:45:35.670Z,140
2016-09-14T10:46:34.417Z,145
2016-09-14T10:47:35.014Z,145
2016-09-14T10:48:34.445Z,140
2016-09-14T10:49:34.884Z,145
2016-09-14T10:50:35.010Z,140
2016-09-14T10:51:34.410Z,140
2016-09-14T10:52:34.434Z,140
2016-09-14T10:53:34.459Z,140
2016-09-14T10:54:34.496Z,140
2016-09-14T10:55:34.440Z,140
2016-09-14T10:56:34.715Z,140
2016-09-14T10:57:35.370Z,140
2016-09-14T10:58:34.800Z,140
2016-09-14T10:59:34.423Z,140
2016-09-14T11:00:35.098Z,140
2016-09-14T11:01:35.733Z,140
2016-09-14T11:02:34.584Z,140
2016-09-14T11:03:34.445Z,140
2016-09-14T11:04:34.685Z,140
2016-09-14T11:05:34.448Z,140
2016-09-14T11:06:34.441Z,140
2016-09-14T11:07:34.487Z,140
2016-09-14T11:08:34.497Z,140
2016-09-14T11:09:34.445Z,140
2016-09-14T11:10:34.474Z,140
2016-09-14T11:11:34.483Z,140
2016-09-14T11:12:34.548Z,140
2016-09-14T11:13:35.603Z,140
2016-09-14T11:14:34.468Z,140
2016-09-14T11:15:34.478Z,140
2016-09-14T11:16:34.448Z,140
2016-09-14T11:17:34.501Z,140
2016-09-14T11:18:34.476Z,140
2016-09-14T11:19:34.499Z,140
2016-09-14T11:20:34.500Z,140
2016-09-14T11:21:34.476Z,140
2016-09-14T11:22:35.146Z,140
2016-09-14T11:23:34.453Z,140
2016-09-14T11:24:35.149Z,140
2016-09-14T11:25:34.487Z,140
2016-09-14T11:26:34.637Z,140
2016-09-14T11:27:34.471Z,145
2016-09-14T11:28:34.475Z,140
2016-09-14T11:29:34.479Z,135
2016-09-14T11:30:34.561Z,135
2016-09-14T11:31:34.493Z,135
2016-09-14T11:32:34.691Z,135
2016-09-14T11:33:34.491Z,140
2016-09-14T11:34:34.815Z,135
2016-09-14T11:35:34.494Z,135
2016-09-14T11:36:35.098Z,135
2016-09-14T11:37:34.543Z,140
2016-09-14T11:38:34.543Z,135
2016-09-14T11:39:34.505Z,135
2016-09-14T11:40:34.535Z,140
2016-09-14T11:41:34.547Z,135
2016-09-14T11:42:34.639Z,135
2016-09-14T11:43:34.524Z,135
2016-09-14T11:44:34.487Z,135
2016-09-14T11:45:34.521Z,135
2016-09-14T11:46:34.880Z,135
2016-09-14T11:47:34.511Z,135
2016-09-14T11:48:34.549Z,135
2016-09-14T11:49:34.577Z,135
2016-09-14T11:50:34.499Z,135
2016-09-14T11:51:34.801Z,135
2016-09-14T11:52:34.539Z,135
2016-09-14T11:53:34.519Z,135
2016-09-14T11:54:34.569Z,140
2016-09-14T11:55:34.576Z,140
2016-09-14T11:56:34.567Z,135
2016-09-14T11:57:34.525Z,135
2016-09-14T11:58:34.490Z,135
2016-09-14T11:59:34.512Z,135
2016-09-14T12:00:34.523Z,135
2016-09-14T12:01:34.510Z,135
2016-09-14T12:02:34.508Z,135
2016-09-14T12:03:34.538Z,135
2016-09-14T12:04:34.506Z,135
2016-09-14T12:05:35.047Z,135
2016-09-14T12:06:34.508Z,135
2016-09-14T12:07:34.532Z,135
2016-09-14T12:08:34.593Z,135
2016-09-14T12:09:34.542Z,135
2016-09-14T12:10:35.185Z,135
2016-09-14T12:11:34.548Z,135
2016-09-14T12:12:35.122Z,135
2016-09-14T12:13:34.647Z,135
2016-09-14T12:14:34.566Z,135
2016-09-14T12:15:34.561Z,135
2016-09-14T12:16:34.542Z,135
2016-09-14T12:17:34.589Z,135
2016-09-14T12:18:34.593Z,135
2016-09-14T12:19:34.541Z,135
2016-09-14T12:20:34.714Z,135
2016-09-14T12:21:34.614Z,135
2016-09-14T12:22:35.194Z,135
2016-09-14T12:23:34.556Z,135
2016-09-14T12:24:34.893Z,135
2016-09-14T12:25:34.546Z,135
2016-09-14T12:26:34.638Z,135
2016-09-14T12:27:34.697Z,135
2016-09-14T12:28:34.571Z,135
2016-09-14T12:29:34.563Z,135
2016-09-14T12:30:35.178Z,135
2016-09-14T12:31:35.310Z,130
2016-09-14T12:32:34.595Z,130
2016-09-14T12:33:34.560Z,135
2016-09-14T12:34:34.555Z,130
2016-09-14T12:35:34.539Z,135
2016-09-14T12:36:35.142Z,130
2016-09-14T12:37:34.916Z,135
2016-09-14T12:38:34.559Z,130
2016-09-14T12:39:34.638Z,130
2016-09-14T12:40:34.555Z,130
2016-09-14T12:41:34.565Z,130
2016-09-14T12:42:34.555Z,130
2016-09-14T12:43:34.741Z,140
2016-09-14T12:44:34.585Z,135
2016-09-14T12:45:34.579Z,130
2016-09-14T12:46:34.555Z,130
2016-09-14T12:47:34.573Z,130
2016-09-14T12:48:34.557Z,130
2016-09-14T12:49:34.576Z,135
2016-09-14T12:50:34.591Z,135
2016-09-14T12:51:34.595Z,130
2016-09-14T12:52:34.593Z,130
2016-09-14T12:53:34.587Z,135
2016-09-14T12:54:34.653Z,135
2016-09-14T12:55:34.587Z,135
2016-09-14T12:56:34.595Z,135
2016-09-14T12:57:35.737Z,135
2016-09-14T12:58:35.505Z,135
2016-09-14T12:59:35.064Z,135
2016-09-14T13:00:37.342Z,135
2016-09-14T13:01:35.142Z,135
2016-09-14T13:02:34.704Z,135
2016-09-14T13:03:34.829Z,135
2016-09-14T13:04:34.589Z,135
2016-09-14T13:05:36.692Z,135
2016-09-14T13:06:34.611Z,135
2016-09-14T13:07:35.586Z,135
2016-09-14T13:08:37.641Z,135
2016-09-14T13:09:35.874Z,135
2016-09-14T13:10:35.182Z,135
2016-09-14T13:11:35.644Z,135
2016-09-14T13:12:34.889Z,135
2016-09-14T13:13:36.876Z,135
2016-09-14T13:14:36.138Z,135
2016-09-14T13:15:35.914Z,135
2016-09-14T13:16:34.635Z,135
2016-09-14T13:17:35.267Z,135
2016-09-14T13:18:34.753Z,135
2016-09-14T13:19:34.664Z,135
2016-09-14T13:20:36.357Z,135
2016-09-14T13:21:58.726Z,135
2016-09-14T13:23:09.956Z,135
2016-09-14T13:24:24.129Z,135
2016-09-14T13:25:52.538Z,135
2016-09-14T13:27:15.929Z,135
2016-09-14T13:27:28.348Z,125
2016-09-14T13:28:28.338Z,130
2016-09-14T13:29:29.460Z,130
2016-09-14T13:30:28.471Z,135
2016-09-14T13:31:28.456Z,135
2016-09-14T13:32:28.350Z,135
2016-09-14T13:33:28.312Z,135
2016-09-14T13:34:29.456Z,135
2016-09-14T13:35:29.537Z,135
2016-09-14T13:36:28.332Z,135
2016-09-14T13:37:29.210Z,135
2016-09-14T13:38:29.145Z,135
2016-09-14T13:39:28.321Z,140
2016-09-14T13:40:29.126Z,140
2016-09-14T13:41:28.332Z,140
2016-09-14T13:42:29.560Z,140
2016-09-14T13:43:28.560Z,140
2016-09-14T13:44:28.542Z,140
2016-09-14T13:45:28.747Z,140
2016-09-14T13:46:31.055Z,140
2016-09-14T13:47:29.109Z,140
2016-09-14T13:48:29.026Z,140
2016-09-14T13:49:28.571Z,135
2016-09-14T13:50:29.087Z,135
2016-09-14T13:51:29.753Z,140
2016-09-14T13:52:29.011Z,135
2016-09-14T13:53:28.475Z,135
2016-09-14T13:54:28.748Z,135
2016-09-14T13:55:28.414Z,135
2016-09-14T13:56:30.984Z,135
2016-09-14T13:57:28.511Z,135
2016-09-14T13:58:29.189Z,135
2016-09-14T13:59:28.468Z,135
2016-09-14T14:00:28.414Z,135
2016-09-14T14:01:29.066Z,135
2016-09-14T14:02:28.427Z,135
2016-09-14T14:03:29.191Z,135
2016-09-14T14:04:28.366Z,135
2016-09-14T14:05:28.372Z,135
2016-09-14T14:06:28.961Z,135
2016-09-14T14:07:28.359Z,135
2016-09-14T14:08:28.369Z,135
2016-09-14T14:09:28.350Z,135
2016-09-14T14:10:28.425Z,135
2016-09-14T14:11:28.363Z,135